Time;durP1;ratioP1;P1;durP2;ratioP2;P2;SDS_P1;SDS_P2;PMS_P1;PMS_P2;Temp;Humidity;BMP_temperature;BMP_pressure;BME280_temperature;BME280_humidity;BME280_pressure;Samples;Min_cycle;Max_cycle;Signal;HPM_P1;HPM_P2
2022/12/31 00:00:59;;;;;;;11.60;7.05;;;;;;;11.16;100.00;99864.88;4908879;29;20119;-76
2022/12/31 00:03:24;;;;;;;8.65;6.97;;;;;;;11.18;100.00;99873.66;4929082;29;20080;-76
2022/12/31 00:05:50;;;;;;;9.70;6.70;;;;;;;11.28;100.00;99885.91;4933048;28;20040;-76
2022/12/31 00:08:15;;;;;;;9.43;7.10;;;;;;;11.20;100.00;99887.84;4899217;29;20033;-76
2022/12/31 00:10:41;;;;;;;10.52;7.88;;;;;;;11.22;100.00;99888.53;4906754;29;20039;-76
2022/12/31 00:13:11;;;;;;;12.43;7.20;;;;;;;11.26;100.00;99887.09;4915319;29;20043;-75
2022/12/31 00:15:38;;;;;;;10.73;6.85;;;;;;;11.35;100.00;99886.00;4915908;29;20032;-76
2022/12/31 00:18:03;;;;;;;9.27;6.60;;;;;;;11.40;100.00;99883.53;4934043;29;20368;-76
2022/12/31 00:20:28;;;;;;;11.77;6.93;;;;;;;11.29;100.00;99892.16;4935437;29;20039;-76
2022/12/31 00:22:54;;;;;;;12.23;6.57;;;;;;;11.48;100.00;99896.19;4928883;29;20035;-77
2022/12/31 00:25:20;;;;;;;9.98;7.85;;;;;;;11.50;100.00;99905.78;4935256;29;20040;-76
2022/12/31 00:27:45;;;;;;;10.50;7.93;;;;;;;11.51;100.00;99896.63;4919642;29;20501;-76
2022/12/31 00:30:11;;;;;;;10.98;7.70;;;;;;;11.43;100.00;99898.59;4917919;29;20027;-77
2022/12/31 00:32:36;;;;;;;9.63;7.35;;;;;;;11.44;100.00;99906.53;4934905;29;20526;-77
2022/12/31 00:35:02;;;;;;;9.52;7.93;;;;;;;11.35;100.00;99907.69;4910854;29;20023;-77
2022/12/31 00:37:28;;;;;;;11.20;7.55;;;;;;;11.55;100.00;99908.78;4918658;29;20075;-76
2022/12/31 00:39:53;;;;;;;9.43;7.35;;;;;;;11.55;100.00;99914.22;4935342;29;20051;-76
2022/12/31 00:42:19;;;;;;;13.25;7.88;;;;;;;11.45;100.00;99919.06;4934990;29;20023;-77
2022/12/31 00:44:44;;;;;;;12.35;7.93;;;;;;;11.46;100.00;99909.91;4930307;29;20028;-76
2022/12/31 00:47:09;;;;;;;12.48;7.22;;;;;;;11.53;100.00;99924.38;4917767;29;20028;-77
2022/12/31 00:49:35;;;;;;;10.32;5.47;;;;;;;11.56;100.00;99932.16;4918355;29;20027;-76
2022/12/31 00:52:00;;;;;;;7.72;6.30;;;;;;;11.42;100.00;99935.72;4933282;29;20024;-77
2022/12/31 00:54:25;;;;;;;7.80;6.43;;;;;;;11.51;100.00;99929.16;4929348;29;20020;-77
2022/12/31 00:56:51;;;;;;;10.82;7.15;;;;;;;11.63;100.00;99922.25;4949684;29;20027;-76
2022/12/31 00:59:16;;;;;;;7.22;6.13;;;;;;;11.79;100.00;99915.75;4917720;29;20031;-76
2022/12/31 01:01:42;;;;;;;8.65;6.20;;;;;;;11.80;100.00;99916.59;4917706;29;20028;-76
2022/12/31 01:04:10;;;;;;;10.32;5.60;;;;;;;11.69;100.00;99932.34;4917346;29;20403;-76
2022/12/31 01:06:36;;;;;;;9.55;5.80;;;;;;;11.84;100.00;99928.78;4934106;29;20043;-76
2022/12/31 01:09:02;;;;;;;7.53;6.25;;;;;;;11.83;100.00;99927.09;4917030;29;20028;-76
2022/12/31 01:11:28;;;;;;;11.52;5.53;;;;;;;11.72;100.00;99941.09;4934278;29;20082;-76
2022/12/31 01:14:02;;;;;;;8.23;5.20;;;;;;;11.95;100.00;99952.72;4917221;29;20082;-77
2022/12/31 01:16:30;;;;;;;8.40;5.15;;;;;;;12.02;100.00;99936.53;4914344;29;20087;-77
2022/12/31 01:18:58;;;;;;;10.00;5.20;;;;;;;11.91;100.00;99932.41;4914054;29;20052;-79
2022/12/31 01:21:23;;;;;;;5.75;4.55;;;;;;;11.99;100.00;99937.72;4914233;29;20042;-77
2022/12/31 01:23:49;;;;;;;8.93;4.82;;;;;;;12.14;100.00;99941.25;4921839;29;20096;-76
2022/12/31 01:26:16;;;;;;;6.95;4.57;;;;;;;12.04;100.00;99946.13;4920966;29;20024;-76
2022/12/31 01:28:41;;;;;;;13.88;5.35;;;;;;;12.07;100.00;99951.19;4915135;29;20046;-76
2022/12/31 01:31:10;;;;;;;8.90;5.22;;;;;;;11.89;100.00;99953.47;4913933;29;20492;-76
2022/12/31 01:33:36;;;;;;;10.10;5.10;;;;;;;11.90;100.00;99955.16;4914199;29;20039;-75
2022/12/31 01:36:08;;;;;;;16.60;5.13;;;;;;;11.92;100.00;99959.34;4929782;29;20060;-75
2022/12/31 01:38:34;;;;;;;8.52;5.85;;;;;;;12.02;100.00;99964.50;4914791;29;20027;-76
2022/12/31 01:41:00;;;;;;;7.03;4.95;;;;;;;11.98;100.00;99952.31;4913202;29;20027;-76
2022/12/31 01:43:47;;;;;;;8.95;5.47;;;;;;;11.94;100.00;99951.03;4913498;29;20172;-78
2022/12/31 01:46:19;;;;;;;14.52;6.13;;;;;;;11.84;100.00;99972.19;4928725;29;20016;-76
2022/12/31 01:48:48;;;;;;;10.40;6.15;;;;;;;11.91;100.00;99956.81;4913233;29;20024;-76
2022/12/31 01:51:14;;;;;;;6.53;5.35;;;;;;;11.97;100.00;99975.06;4913259;29;20023;-76
2022/12/31 01:53:42;;;;;;;10.15;5.40;;;;;;;11.91;100.00;99956.81;4932287;29;20035;-75
2022/12/31 01:56:08;;;;;;;13.05;6.35;;;;;;;12.12;100.00;99954.16;4929155;29;20103;-75
2022/12/31 01:58:41;;;;;;;7.75;5.80;;;;;;;11.95;100.00;99947.28;4914389;29;20427;-75
2022/12/31 02:01:08;;;;;;;7.55;5.20;;;;;;;11.94;100.00;99945.63;4928825;29;20035;-76
2022/12/31 02:03:34;;;;;;;6.50;4.95;;;;;;;12.06;100.00;99944.09;4912985;29;20510;-75
2022/12/31 02:06:21;;;;;;;9.77;5.15;;;;;;;12.07;100.00;99940.34;4913127;29;20040;-75
2022/12/31 02:08:47;;;;;;;7.93;4.97;;;;;;;12.05;100.00;99949.69;4925693;29;20032;-75
2022/12/31 02:11:26;;;;;;;10.20;4.85;;;;;;;12.04;100.00;99951.56;4944466;29;20105;-75
2022/12/31 02:13:56;;;;;;;6.60;4.43;;;;;;;12.09;100.00;99949.13;4913341;29;20059;-75
2022/12/31 02:16:57;;;;;;;7.68;4.50;;;;;;;12.18;100.00;99941.72;4916418;29;20435;-75
2022/12/31 02:19:47;;;;;;;5.88;4.30;;;;;;;12.14;100.00;99957.53;4925453;29;20047;-76
2022/12/31 02:22:41;;;;;;;11.00;4.90;;;;;;;12.21;100.00;99947.59;4941165;29;20050;-76
2022/12/31 02:25:19;;;;;;;8.50;4.25;;;;;;;12.21;100.00;99947.59;4936454;29;20049;-76
2022/12/31 02:28:13;;;;;;;9.50;5.22;;;;;;;12.23;100.00;99950.97;4933752;29;20103;-75
2022/12/31 02:30:40;;;;;;;15.65;5.43;;;;;;;12.04;100.00;99935.28;4930780;29;20106;-75
2022/12/31 02:33:43;;;;;;;8.55;5.43;;;;;;;12.06;100.00;99944.09;4935516;29;20023;-75
2022/12/31 02:36:16;;;;;;;12.73;5.05;;;;;;;12.25;100.00;99947.22;4918917;29;20036;-75
2022/12/31 02:38:45;;;;;;;7.45;4.78;;;;;;;12.18;100.00;99947.13;4918928;29;20023;-75
2022/12/31 02:44:01;;;;;;;7.03;4.63;;;;;;;12.01;100.00;99940.28;4935795;29;20023;-75
2022/12/31 02:46:42;;;;;;;11.13;4.10;;;;;;;12.04;100.00;99946.13;4918649;29;20075;-75
2022/12/31 02:49:22;;;;;;;7.38;4.30;;;;;;;12.00;100.00;99938.56;4919489;29;20027;-76
2022/12/31 02:51:51;;;;;;;9.90;4.93;;;;;;;12.03;100.00;99928.19;4923436;29;20031;-76
2022/12/31 02:54:42;;;;;;;7.32;4.53;;;;;;;11.95;100.00;99926.44;4953490;29;20032;-75
2022/12/31 02:57:16;;;;;;;4.73;3.90;;;;;;;12.03;100.00;99939.03;4919798;29;20031;-74
2022/12/31 03:02:44;;;;;;;9.38;5.38;;;;;;;11.90;100.00;99928.03;4930723;29;20036;-74
2022/12/31 03:05:12;;;;;;;8.75;5.93;;;;;;;12.09;100.00;99932.00;4918396;29;20108;-74
2022/12/31 03:07:39;;;;;;;8.00;5.75;;;;;;;12.10;100.00;99934.53;4934614;29;20038;-75
2022/12/31 03:10:05;;;;;;;11.10;5.90;;;;;;;11.91;100.00;99951.41;4935142;29;20368;-76
2022/12/31 03:12:47;;;;;;;10.70;7.43;;;;;;;11.91;100.00;99946.81;4919235;29;20056;-77
2022/12/31 03:15:25;;;;;;;9.23;6.30;;;;;;;11.91;100.00;99962.25;4918763;29;20102;-77
2022/12/31 03:18:05;;;;;;;8.30;5.93;;;;;;;11.82;100.00;99957.97;4900389;29;20024;-77
2022/12/31 03:23:36;;;;;;;10.05;6.57;;;;;;;11.87;100.00;99955.53;4927561;29;20030;-77
2022/12/31 03:26:10;;;;;;;10.80;5.65;;;;;;;11.80;100.00;99939.16;4910307;29;20039;-77
2022/12/31 03:28:37;;;;;;;13.23;7.60;;;;;;;11.83;100.00;99938.78;4896581;29;20024;-78
2022/12/31 03:31:03;;;;;;;9.10;5.78;;;;;;;11.98;100.00;99941.47;4899999;29;20056;-78
2022/12/31 03:33:37;;;;;;;10.75;4.40;;;;;;;11.87;100.00;99939.28;4930840;29;20123;-78
2022/12/31 03:36:05;;;;;;;8.15;5.22;;;;;;;11.58;100.00;99946.34;4931919;29;20024;-78
2022/12/31 03:38:30;;;;;;;7.63;4.93;;;;;;;11.51;100.00;99945.44;4917466;29;20024;-78
2022/12/31 03:40:56;;;;;;;8.70;5.45;;;;;;;11.59;100.00;99945.31;4899126;29;20034;-78
2022/12/31 03:43:21;;;;;;;9.40;4.32;;;;;;;11.52;100.00;99947.09;4917515;29;20036;-78
2022/12/31 03:45:50;;;;;;;7.22;4.53;;;;;;;11.51;100.00;99956.25;4902505;29;20024;-78
2022/12/31 03:48:16;;;;;;;9.10;5.18;;;;;;;11.67;100.00;99956.09;4902066;29;20025;-78
2022/12/31 03:50:42;;;;;;;10.50;5.85;;;;;;;11.69;100.00;99954.03;4900998;29;20114;-78
2022/12/31 03:53:07;;;;;;;13.07;7.75;;;;;;;11.86;100.00;99948.41;4900964;29;20478;-78
2022/12/31 03:55:33;;;;;;;7.25;4.28;;;;;;;11.85;100.00;99941.31;4941399;29;20075;-78
2022/12/31 03:57:58;;;;;;;12.63;5.10;;;;;;;11.83;100.00;99948.81;4934182;29;20123;-78
2022/12/31 04:00:24;;;;;;;15.93;6.28;;;;;;;11.79;100.00;99958.31;4901389;29;20122;-78
2022/12/31 04:02:50;;;;;;;13.02;6.75;;;;;;;11.85;100.00;99946.72;4917840;29;20111;-78
2022/12/31 04:05:16;;;;;;;10.65;5.15;;;;;;;11.90;100.00;99938.88;4902873;29;20032;-78
2022/12/31 04:07:42;;;;;;;11.57;5.55;;;;;;;11.97;100.00;99939.78;4916707;29;20068;-78
2022/12/31 04:10:10;;;;;;;9.52;5.30;;;;;;;11.82;100.00;99941.69;4900377;29;20039;-78
2022/12/31 04:12:36;;;;;;;9.63;6.63;;;;;;;11.87;100.00;99939.28;4900778;29;20036;-78
2022/12/31 04:15:01;;;;;;;9.45;6.43;;;;;;;11.87;100.00;99947.41;4918276;29;20043;-78
2022/12/31 04:17:27;;;;;;;13.43;8.90;;;;;;;11.81;100.00;99956.31;4943780;28;20020;-78
2022/12/31 04:19:52;;;;;;;13.25;8.77;;;;;;;11.76;100.00;99953.28;4923998;29;20107;-78
2022/12/31 04:22:18;;;;;;;14.02;8.75;;;;;;;11.69;100.00;99967.59;4933982;29;20086;-78
2022/12/31 04:24:44;;;;;;;14.02;7.78;;;;;;;11.73;100.00;99964.47;4919872;29;20028;-78
2022/12/31 04:27:11;;;;;;;13.98;8.60;;;;;;;11.54;100.00;99977.59;4916038;29;20111;-78
2022/12/31 04:29:37;;;;;;;15.65;10.13;;;;;;;11.65;100.00;99979.81;4916831;29;20092;-78
2022/12/31 04:32:03;;;;;;;9.82;7.38;;;;;;;11.67;100.00;99971.50;4915678;29;20024;-78
2022/12/31 04:34:29;;;;;;;10.65;7.80;;;;;;;11.70;100.00;99976.56;4916876;29;20028;-78
2022/12/31 04:36:54;;;;;;;10.50;7.50;;;;;;;11.57;100.00;99982.63;4932313;29;20027;-79
2022/12/31 04:39:20;;;;;;;12.20;8.65;;;;;;;11.60;100.00;99993.09;4935145;29;20047;-79
2022/12/31 04:41:45;;;;;;;15.02;7.22;;;;;;;11.82;100.00;99990.53;4933413;29;20031;-79
2022/12/31 04:44:11;;;;;;;22.48;10.77;;;;;;;11.69;100.00;99994.69;4915751;29;20092;-79
2022/12/31 04:46:36;;;;;;;15.52;10.75;;;;;;;11.73;100.00;99986.16;4916780;29;20047;-78
2022/12/31 04:49:02;;;;;;;13.65;8.45;;;;;;;11.67;100.00;99988.63;4936947;29;20028;-78
2022/12/31 04:51:30;;;;;;;12.38;8.93;;;;;;;11.72;100.00;99989.91;4935379;29;20028;-78
2022/12/31 04:53:56;;;;;;;15.32;8.68;;;;;;;11.81;100.00;99986.13;4917985;29;20028;-78
2022/12/31 04:56:21;;;;;;;15.45;7.15;;;;;;;11.73;100.00;99980.75;4924494;29;20043;-78
2022/12/31 04:58:47;;;;;;;13.38;8.07;;;;;;;11.65;100.00;99963.56;4915661;29;20028;-79
2022/12/31 05:01:13;;;;;;;14.85;7.50;;;;;;;11.73;100.00;99978.03;4914613;29;20067;-77
2022/12/31 05:03:38;;;;;;;8.10;5.50;;;;;;;11.63;100.00;99976.47;4927465;29;20123;-77
2022/12/31 05:06:07;;;;;;;13.95;5.55;;;;;;;11.49;100.00;99974.59;4912775;29;20028;-77
2022/12/31 05:08:32;;;;;;;10.32;5.35;;;;;;;11.58;100.00;99978.88;4914109;29;20035;-78
2022/12/31 05:10:58;;;;;;;15.20;5.70;;;;;;;11.58;100.00;99978.88;4930425;29;20028;-78
2022/12/31 05:13:25;;;;;;;9.80;6.65;;;;;;;11.57;100.00;99971.78;4929483;29;20028;-78
2022/12/31 05:15:51;;;;;;;6.35;4.28;;;;;;;11.66;100.00;99967.09;4932992;29;20032;-78
2022/12/31 05:18:16;;;;;;;5.43;3.78;;;;;;;11.70;100.00;99954.88;4919159;29;20048;-79
2022/12/31 05:20:42;;;;;;;4.43;2.60;;;;;;;11.49;100.00;99947.50;4921227;29;20075;-79
2022/12/31 05:23:08;;;;;;;4.43;2.92;;;;;;;11.46;100.00;99941.59;4918395;29;20134;-78
2022/12/31 05:25:33;;;;;;;3.85;2.55;;;;;;;11.40;100.00;99940.47;4921566;29;20063;-79
2022/12/31 05:27:59;;;;;;;5.72;3.13;;;;;;;11.35;100.00;99926.66;4937611;29;20031;-78
2022/12/31 05:30:24;;;;;;;6.32;3.17;;;;;;;11.36;100.00;99922.91;4949730;29;20024;-77
2022/12/31 05:32:50;;;;;;;4.90;2.75;;;;;;;11.38;100.00;99912.72;4917583;29;20054;-77
2022/12/31 05:35:16;;;;;;;5.32;2.92;;;;;;;11.41;100.00;99909.66;4917663;29;20020;-77
2022/12/31 05:37:41;;;;;;;6.10;3.50;;;;;;;11.34;100.00;99905.97;4934668;29;20162;-77
2022/12/31 05:40:07;;;;;;;9.02;3.90;;;;;;;11.35;100.00;99902.25;4930217;29;20072;-77
2022/12/31 05:42:33;;;;;;;10.15;2.80;;;;;;;11.43;100.00;99915.72;4928148;29;20475;-77
2022/12/31 05:44:58;;;;;;;5.93;2.85;;;;;;;11.47;100.00;99922.41;4917427;29;20034;-77
2022/12/31 05:47:24;;;;;;;4.38;2.33;;;;;;;11.43;100.00;99936.56;4949037;28;20071;-77
2022/12/31 05:49:49;;;;;;;7.75;2.50;;;;;;;11.45;100.00;99939.91;4933577;29;20028;-78
2022/12/31 05:52:15;;;;;;;5.28;3.15;;;;;;;11.55;100.00;99957.59;4915835;29;20079;-78
2022/12/31 05:54:40;;;;;;;5.63;2.65;;;;;;;11.47;100.00;99973.91;4923458;29;20039;-78
2022/12/31 05:57:06;;;;;;;5.93;3.17;;;;;;;11.60;100.00;99976.81;4921850;29;20074;-78
2022/12/31 05:59:32;;;;;;;10.57;3.22;;;;;;;11.54;100.00;99976.72;4938160;29;20030;-77
2022/12/31 06:01:57;;;;;;;10.68;3.35;;;;;;;11.25;100.00;99978.41;4921865;29;20030;-78
2022/12/31 06:04:23;;;;;;;9.90;3.38;;;;;;;11.37;100.00;99986.91;4937533;29;20058;-78
2022/12/31 06:06:48;;;;;;;6.10;4.07;;;;;;;11.36;100.00;99990.66;4920771;29;20039;-78
2022/12/31 06:09:17;;;;;;;4.20;3.13;;;;;;;11.28;100.00;99988.88;4935046;29;20032;-78
2022/12/31 06:11:43;;;;;;;5.65;3.20;;;;;;;11.44;100.00;99992.44;4952390;29;20118;-78
2022/12/31 06:14:09;;;;;;;4.20;3.35;;;;;;;11.36;100.00;100001.50;4921209;29;20078;-78
2022/12/31 06:16:34;;;;;;;3.88;2.85;;;;;;;11.27;100.00;99991.75;4930086;29;20028;-78
2022/12/31 06:19:01;;;;;;;4.43;3.28;;;;;;;11.22;100.00;99999.63;4945034;28;20027;-78
2022/12/31 06:21:28;;;;;;;5.65;3.30;;;;;;;11.31;100.00;100003.91;4915075;29;20031;-78
2022/12/31 06:23:54;;;;;;;6.43;2.67;;;;;;;11.20;100.00;100017.91;4912829;29;20024;-77
2022/12/31 06:26:19;;;;;;;5.57;3.33;;;;;;;11.22;100.00;100021.28;4916143;29;20026;-77
2022/12/31 06:28:45;;;;;;;6.00;2.65;;;;;;;11.25;100.00;100018.19;4917361;29;20088;-77
2022/12/31 06:31:12;;;;;;;5.95;2.28;;;;;;;11.10;100.00;100013.59;4933724;29;20039;-77
2022/12/31 06:33:38;;;;;;;5.00;2.67;;;;;;;11.04;100.00;100014.31;4918141;29;20028;-77
2022/12/31 06:36:06;;;;;;;4.82;2.60;;;;;;;11.11;100.00;100020.69;4917202;29;20020;-77
2022/12/31 06:38:33;;;;;;;3.95;1.98;;;;;;;11.13;100.00;100007.78;4909895;29;20072;-77
2022/12/31 06:41:06;;;;;;;3.85;1.95;;;;;;;10.86;100.00;100011.91;4917019;29;20031;-78
2022/12/31 06:43:34;;;;;;;2.92;1.98;;;;;;;10.98;100.00;100015.03;4908767;29;20028;-77
2022/12/31 06:46:00;;;;;;;5.32;2.10;;;;;;;10.99;100.00;100011.31;4930488;29;20032;-77
2022/12/31 06:48:26;;;;;;;4.30;2.03;;;;;;;10.87;100.00;100018.16;4925186;29;20035;-77
2022/12/31 06:50:51;;;;;;;3.00;1.85;;;;;;;10.91;100.00;100018.66;4918422;29;20020;-77
2022/12/31 06:53:16;;;;;;;5.38;1.48;;;;;;;10.82;100.00;100015.16;4926345;29;20099;-77
2022/12/31 06:55:42;;;;;;;5.45;1.58;;;;;;;10.82;100.00;100009.75;4923677;29;20036;-77
2022/12/31 06:58:12;;;;;;;2.17;1.75;;;;;;;10.90;100.00;100004.28;4916967;29;20020;-77
2022/12/31 07:00:42;;;;;;;5.55;1.92;;;;;;;10.90;100.00;100012.41;4917606;29;20487;-77
2022/12/31 07:03:45;;;;;;;3.72;1.63;;;;;;;10.81;100.00;100002.66;4916373;29;20036;-77
2022/12/31 07:06:29;;;;;;;3.30;1.52;;;;;;;11.03;100.00;100018.06;4917208;29;20016;-77
2022/12/31 07:09:39;;;;;;;3.72;1.55;;;;;;;10.92;100.00;99994.09;4916462;29;20032;-77
2022/12/31 07:12:29;;;;;;;3.85;1.60;;;;;;;10.95;100.00;99988.31;4899562;29;20027;-77
2022/12/31 07:15:08;;;;;;;3.65;1.83;;;;;;;10.86;100.00;100000.25;4927110;29;20436;-76
2022/12/31 07:17:50;;;;;;;6.53;2.20;;;;;;;10.84;100.00;100002.31;4936757;28;20040;-77
2022/12/31 07:20:17;;;;;;;3.72;1.60;;;;;;;10.87;100.00;100013.59;4916461;29;20016;-79
2022/12/31 07:22:44;;;;;;;4.28;1.55;;;;;;;10.76;100.00;100026.75;4920616;29;20047;-77
2022/12/31 07:25:14;;;;;;;3.30;1.75;;;;;;;10.88;100.00;100025.25;4934370;29;20047;-77
2022/12/31 07:27:53;;;;;;;4.93;1.80;;;;;;;10.92;100.00;100032.03;4931619;29;20031;-77
2022/12/31 07:30:28;;;;;;;3.20;1.38;;;;;;;10.88;100.00;100042.34;4917244;29;20543;-77
2022/12/31 07:33:15;;;;;;;3.17;1.10;;;;;;;10.90;100.00;100023.25;4931674;29;20034;-77
2022/12/31 07:35:40;;;;;;;2.95;1.40;;;;;;;10.75;100.00;100025.03;4916063;29;20059;-79
2022/12/31 07:38:15;;;;;;;5.15;1.77;;;;;;;10.68;100.00;100040.31;4931740;29;20506;-77
2022/12/31 07:41:04;;;;;;;3.90;1.23;;;;;;;10.73;100.00;100037.91;4931751;29;20110;-77
2022/12/31 07:44:02;;;;;;;2.15;1.35;;;;;;;10.51;100.00;100039.59;4918182;29;20108;-79
2022/12/31 07:46:39;;;;;;;4.60;1.35;;;;;;;10.56;100.00;100043.44;4918617;29;20066;-78
2022/12/31 07:49:10;;;;;;;4.55;1.30;;;;;;;10.65;100.00;100040.69;4919054;29;20055;-77
2022/12/31 07:51:36;;;;;;;3.17;1.67;;;;;;;10.69;100.00;100033.88;4916048;29;20103;-77
2022/12/31 07:54:01;;;;;;;5.43;1.83;;;;;;;10.77;100.00;100045.50;4945830;28;20118;-77
2022/12/31 07:56:28;;;;;;;4.88;1.50;;;;;;;10.73;100.00;100056.88;4925331;29;20061;-78
2022/12/31 07:59:12;;;;;;;2.67;1.40;;;;;;;10.91;100.00;100045.75;4931104;29;20029;-79
2022/12/31 08:01:55;;;;;;;2.97;1.23;;;;;;;10.62;100.00;100041.88;4925727;29;20067;-79
2022/12/31 08:05:05;;;;;;;8.57;1.83;;;;;;;10.73;100.00;100032.50;4916852;29;20042;-78
2022/12/31 08:07:42;;;;;;;2.60;1.50;;;;;;;10.80;100.00;100044.28;4907628;29;20044;-77
2022/12/31 08:10:12;;;;;;;5.43;1.27;;;;;;;11.01;100.00;100047.16;4915557;29;20099;-77
2022/12/31 08:12:40;;;;;;;2.30;1.50;;;;;;;10.93;100.00;100057.22;4931453;29;20101;-77
2022/12/31 08:15:16;;;;;;;4.47;1.20;;;;;;;10.82;100.00;100061.19;4915406;29;20048;-77
2022/12/31 08:17:42;;;;;;;5.55;1.52;;;;;;;10.93;100.00;100049.94;4922597;29;20032;-77
2022/12/31 08:20:16;;;;;;;2.95;2.13;;;;;;;11.03;100.00;100034.31;4898944;29;20030;-77
2022/12/31 08:23:14;;;;;;;3.10;1.90;;;;;;;10.81;100.00;100040.56;4919738;29;20023;-76
2022/12/31 08:26:21;;;;;;;3.28;1.70;;;;;;;10.95;100.00;100031.63;4899182;29;20122;-76
2022/12/31 08:29:03;;;;;;;3.83;2.22;;;;;;;10.88;100.00;100046.94;4907943;29;20036;-76
2022/12/31 08:32:00;;;;;;;5.47;2.50;;;;;;;10.87;100.00;100046.09;4900299;29;20032;-76
2022/12/31 08:34:34;;;;;;;8.07;3.42;;;;;;;10.88;100.00;100033.38;4909314;29;20110;-76
2022/12/31 08:37:18;;;;;;;7.32;3.75;;;;;;;10.94;100.00;100034.53;4918962;29;20047;-76
2022/12/31 08:40:02;;;;;;;5.03;2.75;;;;;;;10.81;100.00;100044.09;4903234;29;20038;-75
2022/12/31 08:42:41;;;;;;;3.88;2.47;;;;;;;10.94;100.00;100057.03;4932101;29;20135;-74
2022/12/31 08:45:36;;;;;;;5.05;2.58;;;;;;;10.84;100.00;100057.31;4914600;29;20075;-72
2022/12/31 08:48:25;;;;;;;4.25;2.60;;;;;;;10.96;100.00;100049.59;4901697;29;20031;-72
2022/12/31 08:50:52;;;;;;;13.88;3.33;;;;;;;11.10;100.00;100051.50;4899228;29;20032;-72
2022/12/31 08:53:17;;;;;;;4.13;2.05;;;;;;;11.03;100.00;100055.97;4896684;29;20020;-72
2022/12/31 08:55:45;;;;;;;3.80;2.33;;;;;;;11.06;100.00;100058.31;4915327;29;20540;-72
2022/12/31 08:58:17;;;;;;;6.43;2.67;;;;;;;11.23;100.00;100050.06;4899223;29;20020;-72
2022/12/31 09:00:42;;;;;;;3.60;2.83;;;;;;;11.29;100.00;100043.91;4910932;29;20024;-72
2022/12/31 09:03:26;;;;;;;5.63;3.47;;;;;;;11.16;100.00;100038.28;4897040;29;20035;-72
2022/12/31 09:06:01;;;;;;;4.80;3.15;;;;;;;11.09;100.00;100033.59;4910278;29;20039;-72
2022/12/31 09:08:43;;;;;;;6.30;3.40;;;;;;;11.23;100.00;100039.22;4914906;29;20032;-72
2022/12/31 09:11:21;;;;;;;5.47;3.83;;;;;;;11.37;100.00;100030.28;4914206;29;20039;-73
2022/12/31 09:14:08;;;;;;;6.80;4.20;;;;;;;11.24;100.00;100046.31;4897113;29;20039;-74
2022/12/31 09:16:56;;;;;;;4.40;3.40;;;;;;;11.38;100.00;100037.38;4912907;29;20047;-74
2022/12/31 09:19:22;;;;;;;12.32;5.50;;;;;;;11.33;100.00;100034.38;4913458;29;20034;-74
2022/12/31 09:21:47;;;;;;;10.48;5.50;;;;;;;11.34;100.00;100052.31;4916337;29;20024;-74
2022/12/31 09:24:14;;;;;;;8.23;5.63;;;;;;;11.42;100.00;100038.72;4924140;29;20031;-74
2022/12/31 09:26:46;;;;;;;8.48;5.53;;;;;;;11.35;100.00;100043.19;4914581;29;20039;-74
2022/12/31 09:29:42;;;;;;;7.80;4.97;;;;;;;11.27;100.00;100056.78;4918055;29;20024;-73
2022/12/31 09:32:33;;;;;;;9.70;5.38;;;;;;;11.12;100.00;100048.63;4929345;29;20060;-73
2022/12/31 09:35:11;;;;;;;5.65;4.45;;;;;;;11.28;100.00;100055.75;4916803;29;20020;-74
2022/12/31 09:37:42;;;;;;;8.18;5.00;;;;;;;11.27;100.00;100051.38;4919053;29;20032;-73
2022/12/31 09:40:27;;;;;;;14.23;7.85;;;;;;;11.18;100.00;100063.31;4918533;29;20084;-73
2022/12/31 09:43:16;;;;;;;16.45;7.70;;;;;;;11.26;100.00;100055.09;4918603;29;20415;-73
2022/12/31 09:46:09;;;;;;;12.27;9.20;;;;;;;11.35;100.00;100054.03;4918207;29;20103;-73
2022/12/31 09:48:40;;;;;;;9.10;7.28;;;;;;;11.28;100.00;100059.34;4919449;29;20057;-74
2022/12/31 09:51:19;;;;;;;8.05;6.72;;;;;;;11.10;100.00;100054.22;4918648;29;20083;-73
2022/12/31 09:54:19;;;;;;;9.48;7.07;;;;;;;11.28;100.00;100063.88;4922189;29;20398;-73
2022/12/31 09:57:01;;;;;;;9.70;6.97;;;;;;;11.34;100.00;100068.56;4893679;29;20028;-74
2022/12/31 09:59:41;;;;;;;11.82;6.40;;;;;;;11.36;100.00;100066.53;4918324;29;20031;-74
2022/12/31 10:02:38;;;;;;;8.90;5.85;;;;;;;11.35;100.00;100064.88;4910822;29;20509;-75
2022/12/31 10:05:13;;;;;;;10.10;5.90;;;;;;;11.19;100.00;100059.56;4912680;29;20031;-74
2022/12/31 10:07:56;;;;;;;6.57;5.00;;;;;;;11.10;100.00;100045.25;4927462;29;20115;-73
2022/12/31 10:10:41;;;;;;;16.05;5.22;;;;;;;11.12;100.00;100040.50;4914779;29;20040;-74
2022/12/31 10:13:31;;;;;;;10.30;4.90;;;;;;;11.18;100.00;100042.47;4918669;29;20028;-75
2022/12/31 10:16:13;;;;;;;8.02;4.80;;;;;;;11.22;100.00;100049.22;4907651;29;20027;-73
2022/12/31 10:18:51;;;;;;;8.57;5.00;;;;;;;11.19;100.00;100048.72;4932652;29;20083;-74
2022/12/31 10:21:52;;;;;;;6.63;4.35;;;;;;;11.16;100.00;100044.53;4929909;29;20430;-75
2022/12/31 10:24:48;;;;;;;13.23;4.88;;;;;;;11.20;100.00;100045.00;4937313;29;20039;-75
2022/12/31 10:27:36;;;;;;;12.75;5.93;;;;;;;11.10;100.00;100046.09;4918886;29;20035;-75
2022/12/31 10:30:16;;;;;;;7.45;4.88;;;;;;;11.01;100.00;100014.66;4918591;29;20034;-74
2022/12/31 10:32:59;;;;;;;7.93;5.15;;;;;;;11.19;100.00;100037.91;4921449;29;20032;-73
2022/12/31 10:35:53;;;;;;;8.20;4.43;;;;;;;11.24;100.00;100024.66;4939505;29;20035;-74
2022/12/31 10:38:28;;;;;;;10.57;6.05;;;;;;;11.21;100.00;100019.56;4914957;29;20047;-75
2022/12/31 10:41:33;;;;;;;10.40;3.45;;;;;;;11.25;100.00;100016.31;4915569;29;20051;-74
2022/12/31 10:44:35;;;;;;;5.60;3.25;;;;;;;11.43;100.00;100013.28;4932286;29;20031;-75
2022/12/31 10:47:19;;;;;;;;;;;;;;;11.36;100.00;100017.75;4937958;28;20028;-73
2022/12/31 10:50:15;;;;;;;5.93;2.80;;;;;;;11.57;100.00;100020.59;4935428;29;20009;-73
2022/12/31 10:53:23;;;;;;;7.75;2.50;;;;;;;11.46;100.00;100029.16;4927287;29;20024;-74
2022/12/31 10:55:57;;;;;;;4.65;2.22;;;;;;;11.42;100.00;100033.28;4936910;29;20024;-73
2022/12/31 10:58:54;;;;;;;5.82;2.33;;;;;;;11.47;100.00;100020.00;4928097;29;20032;-75
2022/12/31 11:01:44;;;;;;;3.58;2.50;;;;;;;11.60;100.00;100019.34;4931942;29;20027;-74
2022/12/31 11:04:40;;;;;;;7.63;2.90;;;;;;;11.63;100.00;100024.44;4930543;29;20039;-75
2022/12/31 11:07:18;;;;;;;7.70;2.63;;;;;;;11.63;100.00;100025.25;4931232;29;20024;-75
2022/12/31 11:09:49;;;;;;;4.03;2.35;;;;;;;11.73;100.00;100018.72;4940500;29;20023;-74
2022/12/31 11:12:50;;;;;;;4.50;2.35;;;;;;;11.73;100.00;100011.41;4927660;29;20100;-74
2022/12/31 11:15:21;;;;;;;6.18;2.80;;;;;;;11.78;100.00;100010.88;4922989;29;20110;-73
2022/12/31 11:18:15;;;;;;;4.25;2.85;;;;;;;11.90;100.00;100023.81;4920057;29;20024;-76
2022/12/31 11:20:54;;;;;;;4.38;2.85;;;;;;;12.00;100.00;100026.25;4927079;29;20071;-75
2022/12/31 11:23:33;;;;;;;6.78;3.17;;;;;;;12.03;100.00;100025.84;4895990;29;20086;-73
2022/12/31 11:26:10;;;;;;;3.10;1.95;;;;;;;12.18;100.00;100045.66;4893601;29;20031;-73
2022/12/31 11:28:53;;;;;;;3.70;1.52;;;;;;;12.16;100.00;100034.16;4910199;29;20483;-73
2022/12/31 11:31:46;;;;;;;2.42;1.75;;;;;;;12.20;100.00;100038.19;4909617;29;20028;-73
2022/12/31 11:34:20;;;;;;;3.00;1.20;;;;;;;12.38;100.00;100023.34;4912598;29;20040;-73
2022/12/31 11:37:02;;;;;;;3.28;1.00;;;;;;;12.45;100.00;100018.84;4925834;29;20126;-74
2022/12/31 11:39:46;;;;;;;;;;;;;;;12.51;100.00;100039.81;4891924;29;20028;-73
2022/12/31 11:42:40;;;;;;;1.90;1.00;;;;;;;12.58;100.00;100045.31;4907748;29;19915;-73
2022/12/31 11:45:23;;;;;;;4.18;1.15;;;;;;;12.71;100.00;100046.31;4923805;29;20030;-73
2022/12/31 11:48:03;;;;;;;2.33;1.60;;;;;;;12.75;100.00;100042.16;4911722;29;20032;-72
2022/12/31 11:51:01;;;;;;;2.78;1.45;;;;;;;12.72;100.00;100058.88;4903770;29;20031;-72
2022/12/31 11:53:42;;;;;;;1.80;1.10;;;;;;;12.80;100.00;100048.91;4899267;29;20032;-71
2022/12/31 11:56:38;;;;;;;2.15;0.90;;;;;;;12.97;100.00;100039.44;4909786;29;20475;-74
2022/12/31 11:59:09;;;;;;;1.50;1.00;;;;;;;13.04;100.00;100040.38;4925899;29;20031;-70